Tehachapi, CA

3:00 PM PST on February 01, 2015 (GMT -0800)
Oak Tree Golf Course #7-BVS | Change Station
CLOSE
Current Station
Personal Weather Station
Location: Tehachapi, CA
Elevation: 4052 ft
Nearby Weather Stations

Elev 4052 ft 35.16 °N, 118.65 °W | Updated 3 minutes ago

Clear
Clear
64.8 °F
Feels Like 64.8 °F
N
7.6
Wind Variable Wind from NW
Gusts 7.8 mph

Today
High -- | Low -- °F
--% Chance of Precip.
Yesterday
High -- | Low -- °F
Precip. -- in
6:53 AM 5:22 PM
Waxing Gibbous, 96% visible
Pressure 30.16 in
Visibility 10.0 miles
Clouds Clear
Dew Point -12 °F
Humidity 4%
Rainfall 0.00 in
Snow Depth Not available.
UV 3 out of 12
Pollen 6.70 out of 12
Air Quality Not available.
Flu Activity Not available.
METAR KTSP 012235Z AUTO 32007KT 10SM CLR 18/00 A3016 RMK AO2

More Conditions Fewer Conditions

Pressure 30.16 in
Visibility 10.0 miles
Clouds Clear
Dew Point -12 °F
Humidity 4%
Rainfall 0.00 in
Snow Depth Not available.
UV 3 out of 12
Pollen 6.70 out of 12
Air Quality Not available.
Flu Activity Not available.
METAR KTSP 012235Z AUTO 32007KT 10SM CLR 18/00 A3016 RMK AO2

More Conditions Fewer Conditions

10-Day Weather Forecast

Almanac

Astronomy

Feb. 01, 2015 Rise Set
Actual Time
Civil Twilight
Nautical Twilight
Astronomical Twilight
Moon
Length of Visible Light
Length of Day
Tomorrow will be .
, % of the Moon is Illuminated

Today's Extremes

State Highs State Lows

Community

WunderPhotos

Upload Photos

1,792,599 photos uploaded!

WunderBlogs® & News

Nearby

Air Quality

  Air Quality AQ Index Pollutant
Not available.

Snow Depth

Station Depth Elevation

Earthquake Activity

City Distance Mag. Time & Date
Minimum magnitude displayed is 2.5.

Coastal Water Temperatures

Place Temperature

Nearby Weather Stations